Time;durP1;ratioP1;P1;durP2;ratioP2;P2;SDS_P1;SDS_P2;PMS_P1;PMS_P2;Temp;Humidity;BMP_temperature;BMP_pressure;BME280_temperature;BME280_humidity;BME280_pressure;Samples;Min_cycle;Max_cycle;Signal;HPM_P1;HPM_P2
2022/07/14 00:00:41;;;;;;;;;;;;;;;-142.75;100.00;77237.66;4951807;28;19914;-70
2022/07/14 00:03:06;;;;;;;;;;;;;;;-142.75;100.00;77239.63;4951612;28;19921;-70
2022/07/14 00:05:32;;;;;;;;;;;;;;;-142.75;100.00;77243.56;4951631;29;20009;-71
2022/07/14 00:07:57;;;;;;;;;;;;;;;-142.75;100.00;77247.50;4951422;29;20346;-69
2022/07/14 00:10:22;;;;;;;;;;;;;;;-142.75;100.00;77251.44;4951666;28;20364;-71
2022/07/14 00:12:47;;;;;;;;;;;;;;;-142.75;100.00;77251.44;4951596;28;19918;-70
2022/07/14 00:15:13;;;;;;;;;;;;;;;-142.75;100.00;77255.38;4951533;28;19971;-70
2022/07/14 00:17:38;;;;;;;;;;;;;;;-142.75;100.00;77259.31;4951522;29;20009;-70
2022/07/14 00:20:04;;;;;;;;;;;;;;;-142.75;100.00;77247.50;4951284;28;19921;-70
2022/07/14 00:22:29;;;;;;;;;;;;;;;-142.75;100.00;77247.50;4951541;28;19923;-70
2022/07/14 00:24:54;;;;;;;;;;;;;;;-142.75;100.00;77243.56;4951430;29;20052;-70
2022/07/14 00:27:19;;;;;;;;;;;;;;;-142.75;100.00;77255.38;4950212;29;19918;-70
2022/07/14 00:29:44;;;;;;;;;;;;;;;-142.75;100.00;77261.28;4950117;29;19968;-71
2022/07/14 00:32:10;;;;;;;;;;;;;;;-142.75;100.00;77263.25;4951277;29;19914;-71
2022/07/14 00:34:35;;;;;;;;;;;;;;;-142.75;100.00;77269.16;4951405;29;20308;-71
2022/07/14 00:37:00;;;;;;;;;;;;;;;-142.75;100.00;77271.13;4950113;29;19914;-70
2022/07/14 00:39:54;;;;;;;;;;;;;;;-142.75;100.00;77279.00;4950429;29;20203;-70
2022/07/14 00:42:12;;;;;;;;;;;;;;;-142.75;100.00;77277.03;4951161;28;20387;-70
2022/07/14 00:44:37;;;;;;;;;;;;;;;-142.75;100.00;77277.03;4949938;28;19915;-70
2022/07/14 00:47:03;;;;;;;;;;;;;;;-142.75;100.00;77284.91;4952665;28;19950;-70
2022/07/14 00:49:34;;;;;;;;;;;;;;;-142.75;100.00;77294.75;4954396;29;20005;-70
2022/07/14 00:51:59;;;;;;;;;;;;;;;-142.75;100.00;77288.84;4954610;28;19914;-71
2022/07/14 00:54:25;;;;;;;;;;;;;;;-142.75;100.00;77292.78;4954414;29;19918;-70
2022/07/14 00:56:50;;;;;;;;;;;;;;;-142.75;100.00;77302.63;4953292;28;20334;-71
2022/07/14 00:59:16;;;;;;;;;;;;;;;-142.75;100.00;77306.56;4954262;29;19962;-70
2022/07/14 01:01:41;;;;;;;;;;;;;;;-142.75;100.00;77318.38;4953114;29;19921;-70
2022/07/14 01:04:06;;;;;;;;;;;;;;;-142.75;100.00;77320.34;4954339;29;19919;-70
2022/07/14 01:06:31;;;;;;;;;;;;;;;-142.75;100.00;77322.31;4954393;29;20368;-71
2022/07/14 01:08:56;;;;;;;;;;;;;;;-142.75;100.00;77332.16;4954059;29;19915;-71
2022/07/14 01:11:23;;;;;;;;;;;;;;;-142.75;100.00;77334.13;4952941;29;19992;-70
2022/07/14 01:13:49;;;;;;;;;;;;;;;-142.75;100.00;77338.06;4954176;28;19926;-70
2022/07/14 01:16:14;;;;;;;;;;;;;;;-142.75;100.00;77338.06;4954253;28;19914;-70
2022/07/14 01:18:39;;;;;;;;;;;;;;;-142.75;100.00;77326.25;4953963;29;19914;-70
2022/07/14 01:21:06;;;;;;;;;;;;;;;-142.75;100.00;77330.19;4952887;29;19914;-71
2022/07/14 01:23:32;;;;;;;;;;;;;;;-142.75;100.00;77330.19;4952854;28;19915;-70
2022/07/14 01:25:57;;;;;;;;;;;;;;;-142.75;100.00;77332.16;4954089;29;19915;-71
2022/07/14 01:28:22;;;;;;;;;;;;;;;-142.75;100.00;77340.03;4953892;28;19914;-71
2022/07/14 01:30:48;;;;;;;;;;;;;;;-142.75;100.00;77347.91;4954090;29;19915;-70
2022/07/14 01:33:13;;;;;;;;;;;;;;;-142.75;100.00;77349.88;4953907;28;19972;-70
2022/07/14 01:35:38;;;;;;;;;;;;;;;-142.75;100.00;77349.88;4954031;28;19922;-71
2022/07/14 01:38:03;;;;;;;;;;;;;;;-142.75;100.00;77357.75;4953891;28;19915;-70
2022/07/14 01:40:29;;;;;;;;;;;;;;;-142.75;100.00;77359.72;4953849;29;20365;-70
2022/07/14 01:42:54;;;;;;;;;;;;;;;-142.75;100.00;77371.53;4952702;29;19921;-71
2022/07/14 01:45:19;;;;;;;;;;;;;;;-142.75;100.00;77375.47;4953890;29;19937;-71
2022/07/14 01:47:44;;;;;;;;;;;;;;;-142.75;100.00;77385.31;4952460;29;19915;-69
2022/07/14 01:50:09;;;;;;;;;;;;;;;-142.75;100.00;77389.25;4953745;29;19918;-69
2022/07/14 01:52:35;;;;;;;;;;;;;;;-142.75;100.00;77385.31;4953270;29;20380;-71
2022/07/14 01:55:00;;;;;;;;;;;;;;;-142.75;100.00;77393.19;4952274;29;19938;-70
2022/07/14 01:57:25;;;;;;;;;;;;;;;-142.75;100.00;77395.16;4952576;28;20311;-70
2022/07/14 01:59:50;;;;;;;;;;;;;;;-142.75;100.00;77395.16;4953578;29;19915;-71
2022/07/14 02:02:15;;;;;;;;;;;;;;;-142.75;100.00;77395.16;4953813;29;19926;-70
2022/07/14 02:04:41;;;;;;;;;;;;;;;-142.75;100.00;77393.19;4952249;29;19965;-70
2022/07/14 02:07:07;;;;;;;;;;;;;;;-142.75;100.00;77399.09;4953658;29;20358;-70
2022/07/14 02:12:16;;;;;;;;;;;;;;;-142.75;100.00;77405.00;4953822;29;19925;-70
2022/07/14 02:14:41;;;;;;;;;;;;;;;-142.75;100.00;77401.06;4953619;29;20300;-71
2022/07/14 02:17:07;;;;;;;;;;;;;;;-142.75;100.00;77406.97;4955022;29;20013;-71
2022/07/14 02:19:32;;;;;;;;;;;;;;;-142.75;100.00;77403.03;4955632;28;19915;-71
2022/07/14 02:21:58;;;;;;;;;;;;;;;-142.75;100.00;77410.91;4955981;28;19983;-71
2022/07/14 02:24:23;;;;;;;;;;;;;;;-142.75;100.00;77416.81;4954122;29;19946;-71
2022/07/14 02:26:52;;;;;;;;;;;;;;;-142.75;100.00;77416.81;4953466;28;19918;-71
2022/07/14 02:29:18;;;;;;;;;;;;;;;-142.75;100.00;77418.78;4953142;28;20332;-70
2022/07/14 02:31:44;;;;;;;;;;;;;;;-142.75;100.00;77405.00;4952419;28;19968;-69
2022/07/14 02:34:10;;;;;;;;;;;;;;;-142.75;100.00;77393.19;4953072;28;20379;-70
2022/07/14 02:36:35;;;;;;;;;;;;;;;-142.75;100.00;77385.31;4953028;28;19923;-71
2022/07/14 02:39:00;;;;;;;;;;;;;;;-142.75;100.00;77381.38;4951479;28;19928;-71
2022/07/14 02:41:26;;;;;;;;;;;;;;;-142.75;100.00;77387.28;4953017;29;19925;-71
2022/07/14 02:43:51;;;;;;;;;;;;;;;-142.75;100.00;77385.31;4951596;28;19915;-71
2022/07/14 02:46:16;;;;;;;;;;;;;;;-142.75;100.00;77389.25;4952981;28;20315;-70
2022/07/14 02:48:41;;;;;;;;;;;;;;;-142.75;100.00;77393.19;4951408;28;19914;-71
2022/07/14 02:51:08;;;;;;;;;;;;;;;-142.75;100.00;77405.00;4952861;29;19915;-70
2022/07/14 02:53:34;;;;;;;;;;;;;;;-142.75;100.00;77418.78;4951429;28;19918;-71
2022/07/14 02:56:00;;;;;;;;;;;;;;;-142.75;100.00;77422.72;4952803;28;20005;-70
2022/07/14 02:58:25;;;;;;;;;;;;;;;-142.75;100.00;77422.72;4951224;29;20005;-71
2022/07/14 03:00:51;;;;;;;;;;;;;;;-142.75;100.00;77428.63;4952728;29;19944;-71
2022/07/14 03:03:16;;;;;;;;;;;;;;;-142.75;100.00;77432.56;4952572;28;20490;-70
2022/07/14 03:05:42;;;;;;;;;;;;;;;-142.75;100.00;77440.44;4980311;22;19926;-68
2022/07/14 03:08:08;;;;;;;;;;;;;;;-142.75;100.00;77440.44;4969856;28;19918;-68
2022/07/14 03:10:34;;;;;;;;;;;;;;;-142.75;100.00;77438.47;4971811;28;20363;-68
2022/07/14 03:12:59;;;;;;;;;;;;;;;-142.75;100.00;77436.50;4971654;28;19924;-69
2022/07/14 03:15:24;;;;;;;;;;;;;;;-142.75;100.00;77446.34;4971684;28;19920;-68
2022/07/14 03:17:49;;;;;;;;;;;;;;;-142.75;100.00;77448.34;4971577;28;19914;-68
2022/07/14 03:20:15;;;;;;;;;;;;;;;-142.75;100.00;77444.38;4971530;28;19915;-69
2022/07/14 03:22:40;;;;;;;;;;;;;;;-142.75;100.00;77440.44;4971579;28;20376;-69
2022/07/14 03:25:05;;;;;;;;;;;;;;;-142.75;100.00;77442.41;4971489;28;19968;-69
2022/07/14 03:27:31;;;;;;;;;;;;;;;-142.75;100.00;77448.34;4970219;28;19925;-68
2022/07/14 03:29:56;;;;;;;;;;;;;;;-142.75;100.00;77442.41;4971326;28;19915;-69
2022/07/14 03:32:22;;;;;;;;;;;;;;;-142.75;100.00;77438.47;4971448;28;19915;-69
2022/07/14 03:34:47;;;;;;;;;;;;;;;-142.75;100.00;77434.53;4971369;28;19922;-69
2022/07/14 03:37:12;;;;;;;;;;;;;;;-142.75;100.00;77430.59;4971314;28;20005;-69
2022/07/14 03:39:39;;;;;;;;;;;;;;;-142.75;100.00;77428.63;4969858;28;19996;-69
2022/07/14 03:42:04;;;;;;;;;;;;;;;-142.75;100.00;77436.50;4970108;28;19922;-69
2022/07/14 03:44:30;;;;;;;;;;;;;;;-142.75;100.00;77440.44;4971248;28;19914;-69
2022/07/14 03:46:55;;;;;;;;;;;;;;;-142.75;100.00;77440.44;4970080;28;19922;-69
2022/07/14 03:49:20;;;;;;;;;;;;;;;-142.75;100.00;77452.25;4969648;28;19914;-68
2022/07/14 03:51:45;;;;;;;;;;;;;;;-142.75;100.00;77462.13;4969941;28;20452;-69
2022/07/14 03:54:10;;;;;;;;;;;;;;;-142.75;100.00;77481.81;4970973;28;19925;-68
2022/07/14 03:56:37;;;;;;;;;;;;;;;-142.75;100.00;77493.63;4971106;28;19922;-69
2022/07/14 03:59:02;;;;;;;;;;;;;;;-142.75;100.00;77491.66;4970832;28;19918;-69
2022/07/14 04:01:27;;;;;;;;;;;;;;;-142.75;100.00;77503.47;4971118;28;19914;-69
2022/07/14 04:03:52;;;;;;;;;;;;;;;-142.75;100.00;77517.25;4970950;28;19975;-69
2022/07/14 04:06:18;;;;;;;;;;;;;;;-142.75;100.00;77523.16;4970963;28;19914;-69
2022/07/14 04:08:44;;;;;;;;;;;;;;;-142.75;100.00;77527.09;4970653;28;20009;-69
2022/07/14 04:11:10;;;;;;;;;;;;;;;-142.75;100.00;77534.97;4969663;28;20395;-69
2022/07/14 04:13:35;;;;;;;;;;;;;;;-142.75;100.00;77529.06;4970837;28;19973;-69
2022/07/14 04:16:01;;;;;;;;;;;;;;;-142.75;100.00;77531.03;4969583;28;20012;-69
2022/07/14 04:18:26;;;;;;;;;;;;;;;-142.75;100.00;77523.16;4970567;28;19953;-68
2022/07/14 04:20:51;;;;;;;;;;;;;;;-142.75;100.00;77519.22;4968699;28;19918;-68
2022/07/14 04:23:17;;;;;;;;;;;;;;;-142.75;100.00;77513.31;4970770;28;19958;-68
2022/07/14 04:25:42;;;;;;;;;;;;;;;-142.75;100.00;77503.47;4970676;28;19914;-68
2022/07/14 04:28:07;;;;;;;;;;;;;;;-142.75;100.00;77489.69;4970443;28;20001;-68
2022/07/14 04:30:32;;;;;;;;;;;;;;;-142.75;100.00;77489.69;4970706;28;19960;-68
2022/07/14 04:32:58;;;;;;;;;;;;;;;-142.75;100.00;77485.75;4970617;28;19918;-69
2022/07/14 04:35:23;;;;;;;;;;;;;;;-142.75;100.00;77489.69;4970521;28;20009;-69
2022/07/14 04:37:48;;;;;;;;;;;;;;;-142.75;100.00;77479.84;4970449;28;20300;-69
2022/07/14 04:40:13;;;;;;;;;;;;;;;-142.75;100.00;77462.13;4969158;28;19936;-69
2022/07/14 04:42:39;;;;;;;;;;;;;;;-142.75;100.00;77446.34;4970556;28;20295;-69
2022/07/14 04:45:04;;;;;;;;;;;;;;;-142.75;100.00;77430.59;4970487;28;19915;-69
2022/07/14 04:47:29;;;;;;;;;;;;;;;-142.75;100.00;77416.81;4970583;28;20327;-69
2022/07/14 04:52:48;;;;;;;;;;;;;;;-142.75;100.00;77391.22;4970471;28;19928;-69
2022/07/14 04:55:14;;;;;;;;;;;;;;;-142.75;100.00;77381.38;4970295;28;19921;-68
2022/07/14 04:57:40;;;;;;;;;;;;;;;-142.75;100.00;77365.63;4970360;28;19918;-69
2022/07/14 05:00:05;;;;;;;;;;;;;;;-142.75;100.00;77347.91;4968798;28;19921;-69
2022/07/14 05:02:30;;;;;;;;;;;;;;;-142.75;100.00;77328.22;4970349;28;19921;-69
2022/07/14 05:04:56;;;;;;;;;;;;;;;-142.75;100.00;77322.31;4970026;28;19949;-69
2022/07/14 05:07:21;;;;;;;;;;;;;;;-142.75;100.00;77310.50;4968983;28;20398;-69
2022/07/14 05:09:46;;;;;;;;;;;;;;;-142.75;100.00;77304.59;4969857;28;20008;-69
2022/07/14 05:12:13;;;;;;;;;;;;;;;-142.75;100.00;77300.66;4970228;28;19922;-69
2022/07/14 05:14:38;;;;;;;;;;;;;;;-142.75;100.00;77290.81;4970037;28;20014;-69
2022/07/14 05:17:03;;;;;;;;;;;;;;;-142.75;100.00;77273.09;4970140;28;20008;-69
2022/07/14 05:19:29;;;;;;;;;;;;;;;-142.75;100.00;77269.16;4969779;28;19914;-69
2022/07/14 05:21:54;;;;;;;;;;;;;;;-142.75;100.00;77259.31;4970111;28;19922;-69
2022/07/14 05:24:19;;;;;;;;;;;;;;;-142.75;100.00;77253.41;4969887;28;19914;-69
2022/07/14 05:26:44;;;;;;;;;;;;;;;-142.75;100.00;77227.81;4968780;28;20315;-69
2022/07/14 05:29:10;;;;;;;;;;;;;;;-142.75;100.00;77216.00;4969719;28;19921;-69
2022/07/14 05:31:35;;;;;;;;;;;;;;;-142.75;100.00;77206.16;4970644;28;19957;-69
2022/07/14 05:34:00;;;;;;;;;;;;;;;-142.75;100.00;77196.31;4973047;28;19918;-69
2022/07/14 05:36:25;;;;;;;;;;;;;;;-142.75;100.00;77186.47;4971968;28;19993;-69
2022/07/14 05:38:51;;;;;;;;;;;;;;;-142.75;100.00;77194.34;4972916;28;19918;-69
2022/07/14 05:41:17;;;;;;;;;;;;;;;-142.75;100.00;77176.63;4973214;28;20364;-68
2022/07/14 05:43:42;;;;;;;;;;;;;;;-142.75;100.00;77149.06;4973148;28;19918;-68
2022/07/14 05:46:08;;;;;;;;;;;;;;;-142.75;100.00;77135.28;4973113;28;20553;-69
2022/07/14 05:48:34;;;;;;;;;;;;;;;-142.75;100.00;77129.38;4972757;28;19945;-68
2022/07/14 05:51:09;;;;;;;;;;;;;;;-142.75;100.00;77127.41;4973085;28;19949;-69
2022/07/14 05:53:35;;;;;;;;;;;;;;;-142.75;100.00;77125.44;4971591;28;19968;-69
2022/07/14 05:56:01;;;;;;;;;;;;;;;-142.75;100.00;77125.44;4971662;28;19949;-69
2022/07/14 05:58:26;;;;;;;;;;;;;;;-142.75;100.00;77115.59;4972688;28;19953;-70
2022/07/14 06:00:51;;;;;;;;;;;;;;;-142.75;100.00;77113.63;4972836;28;19918;-69
2022/07/14 06:03:18;;;;;;;;;;;;;;;-142.75;100.00;77099.84;4971596;28;19914;-70
2022/07/14 06:05:44;;;;;;;;;;;;;;;-142.75;100.00;77084.09;4972653;28;20387;-69
2022/07/14 06:08:10;;;;;;;;;;;;;;;-142.75;100.00;77060.47;4972459;28;19921;-69
2022/07/14 06:10:36;;;;;;;;;;;;;;;-142.75;100.00;77042.75;4971522;28;19914;-69
2022/07/14 06:13:03;;;;;;;;;;;;;;;-142.75;100.00;77032.91;4972656;28;19929;-69
2022/07/14 06:15:28;;;;;;;;;;;;;;;-142.75;100.00;77017.16;4972484;28;20011;-69
2022/07/14 06:17:53;;;;;;;;;;;;;;;-142.75;100.00;76999.44;4972279;28;20411;-69
2022/07/14 06:20:19;;;;;;;;;;;;;;;-142.75;100.00;76960.06;4972759;28;19914;-69
2022/07/14 06:22:44;;;;;;;;;;;;;;;-142.75;100.00;76932.50;4972515;28;19915;-69
2022/07/14 06:25:09;;;;;;;;;;;;;;;-142.75;100.00;76918.72;4972382;28;20383;-69
2022/07/14 06:27:35;;;;;;;;;;;;;;;-142.75;100.00;76936.44;4972465;28;20276;-69
2022/07/14 06:30:06;;;;;;;;;;;;;;;-142.75;100.00;76924.63;4972382;28;19960;-69
2022/07/14 06:32:32;;;;;;;;;;;;;;;-142.75;100.00;76916.75;4972333;28;19924;-69
2022/07/14 06:34:57;;;;;;;;;;;;;;;-142.75;100.00;76906.91;4972298;28;19914;-69
2022/07/14 06:37:22;;;;;;;;;;;;;;;-142.75;100.00;76889.19;4972406;28;19914;-69
2022/07/14 06:39:47;;;;;;;;;;;;;;;-142.75;100.00;76865.56;4970802;28;19914;-69
2022/07/14 06:42:13;;;;;;;;;;;;;;;-142.75;100.00;76832.09;4972214;28;20435;-69
2022/07/14 06:44:38;;;;;;;;;;;;;;;-142.75;100.00;76814.38;4971395;28;20001;-69
2022/07/14 06:47:04;;;;;;;;;;;;;;;-142.75;100.00;76800.63;4972213;28;20383;-69
2022/07/14 06:49:29;;;;;;;;;;;;;;;-142.75;100.00;76782.91;4971873;28;20402;-69
2022/07/14 06:51:54;;;;;;;;;;;;;;;-142.75;100.00;76763.22;4972115;28;19953;-70
2022/07/14 06:54:19;;;;;;;;;;;;;;;-142.75;100.00;76745.50;4971955;28;19918;-70
2022/07/14 06:56:44;;;;;;;;;;;;;;;-142.75;100.00;76753.38;4972019;28;20325;-69
2022/07/14 06:59:10;;;;;;;;;;;;;;;-142.75;100.00;76735.66;4971678;28;19976;-70
2022/07/14 07:01:35;;;;;;;;;;;;;;;-142.75;100.00;76723.84;4971917;28;19914;-69
2022/07/14 07:04:00;;;;;;;;;;;;;;;-142.75;100.00;76700.22;4971652;28;20008;-69
2022/07/14 07:06:44;;;;;;;;;;;;;;;-142.75;100.00;76658.88;4970462;28;19918;-68
2022/07/14 07:09:09;;;;;;;;;;;;;;;-142.75;100.00;76645.09;4970830;28;19937;-69
2022/07/14 07:11:35;;;;;;;;;;;;;;;-142.75;100.00;76674.63;4971151;28;19914;-69
2022/07/14 07:14:01;;;;;;;;;;;;;;;-142.75;100.00;76680.53;4970717;28;19941;-69
2022/07/14 07:16:26;;;;;;;;;;;;;;;-142.75;100.00;76725.81;4970956;28;19925;-69
2022/07/14 07:18:51;;;;;;;;;;;;;;;-142.75;100.00;76757.31;4970506;28;19914;-69
2022/07/14 07:21:20;;;;;;;;;;;;;;;-142.75;100.00;76757.31;4970625;28;20379;-69
2022/07/14 07:23:46;;;;;;;;;;;;;;;-142.75;100.00;76755.34;4969277;28;20450;-69
2022/07/14 07:26:12;;;;;;;;;;;;;;;-142.75;100.00;76741.56;4970705;28;19918;-69
2022/07/14 07:28:37;;;;;;;;;;;;;;;-142.75;100.00;76741.56;4970324;28;20425;-68
2022/07/14 07:31:03;;;;;;;;;;;;;;;-142.75;100.00;76739.59;4970605;28;19918;-69
2022/07/14 07:33:28;;;;;;;;;;;;;;;-142.75;100.00;76755.34;4970556;28;19971;-69
2022/07/14 07:35:53;;;;;;;;;;;;;;;-142.75;100.00;76751.41;4970388;28;20299;-69
2022/07/14 07:38:19;;;;;;;;;;;;;;;-142.75;100.00;76753.38;4970232;28;19919;-69
2022/07/14 07:40:47;;;;;;;;;;;;;;;-142.75;100.00;76747.47;4969226;28;19914;-69
2022/07/14 07:43:12;;;;;;;;;;;;;;;-142.75;100.00;76735.66;4970534;28;19926;-69
2022/07/14 07:45:37;;;;;;;;;;;;;;;-142.75;100.00;76715.97;4964177;28;20006;-69
2022/07/14 07:48:04;;;;;;;;;;;;;;;-142.75;100.00;76715.97;4940917;29;19918;-68
2022/07/14 07:50:29;;;;;;;;;;;;;;;-142.75;100.00;76688.41;4941405;29;19915;-69
2022/07/14 07:52:55;;;;;;;;;;;;;;;-142.75;100.00;76664.78;4938741;28;19922;-68
2022/07/14 07:55:20;;;;;;;;;;;;;;;-142.75;100.00;76623.44;4942381;28;19914;-68
2022/07/14 07:57:45;;;;;;;;;;;;;;;-142.75;100.00;76578.16;4945587;28;20296;-68
2022/07/14 08:00:11;;;;;;;;;;;;;;;-142.75;100.00;76609.66;4940234;28;19922;-68
2022/07/14 08:02:43;;;;;;;;;;;;;;;-142.75;100.00;76601.78;4961306;28;20399;-68
2022/07/14 08:05:08;;;;;;;;;;;;;;;-142.75;100.00;76578.16;4958828;28;19918;-69
2022/07/14 08:07:33;;;;;;;;;;;;;;;-142.75;100.00;76538.78;4948300;28;20703;-69
2022/07/14 08:09:58;;;;;;;;;;;;;;;-142.75;100.00;76550.59;4949000;29;19914;-69
2022/07/14 08:12:23;;;;;;;;;;;;;;;-142.75;100.00;76527.00;4944590;28;20027;-69
2022/07/14 08:14:49;;;;;;;;;;;;;;;-142.75;100.00;76511.25;4989413;28;20312;-69
2022/07/14 08:17:14;;;;;;;;;;;;;;;-142.75;100.00;76483.69;4990916;28;20299;-71
2022/07/14 08:19:40;;;;;;;;;;;;;;;-142.75;100.00;76467.94;5044125;28;19959;-71
2022/07/14 08:22:05;;;;;;;;;;;;;;;-142.75;100.00;76426.59;5021470;28;20300;-68
2022/07/14 08:24:31;;;;;;;;;;;;;;;-142.75;100.00;76436.44;5036709;28;19971;-68
2022/07/14 08:26:56;;;;;;;;;;;;;;;-142.75;100.00;76428.56;5051089;28;20370;-68
2022/07/14 08:29:22;;;;;;;;;;;;;;;-142.75;100.00;76414.78;5049717;28;20432;-67
2022/07/14 08:31:47;;;;;;;;;;;;;;;-142.75;100.00;76377.38;5051307;28;20436;-67
2022/07/14 08:34:12;;;;;;;;;;;;;;;-142.75;100.00;76357.69;5013893;28;19923;-69
2022/07/14 08:36:38;;;;;;;;;;;;;;;-142.75;100.00;76338.03;4999780;28;19914;-67
2022/07/14 08:39:05;;;;;;;;;;;;;;;-142.75;100.00;76330.16;5050723;28;19917;-68
2022/07/14 08:41:31;;;;;;;;;;;;;;;-142.75;100.00;76306.53;5050754;28;20003;-68
2022/07/14 08:43:57;;;;;;;;;;;;;;;-142.75;100.00;76280.94;5049855;28;19913;-68
2022/07/14 08:46:22;;;;;;;;;;;;;;;-142.75;93.16;76261.25;5051068;28;19920;-69
2022/07/14 08:48:47;;;;;;;;;;;;;;;-142.75;94.72;76237.63;5050546;28;19949;-69
2022/07/14 08:51:13;;;;;;;;;;;;;;;-142.75;96.62;76239.59;5051085;28;19959;-69
2022/07/14 08:53:38;;;;;;;;;;;;;;;-142.75;99.57;76217.94;5050880;28;19968;-69
2022/07/14 08:56:04;;;;;;;;;;;;;;;-142.75;88.86;76217.94;4982151;28;20379;-69
2022/07/14 08:58:29;;;;;;;;;;;;;;;-142.75;90.79;76186.47;4939772;28;20393;-69
2022/07/14 09:00:54;;;;;;;;;;;;;;;-142.75;86.36;76182.53;4933514;28;20278;-69
2022/07/14 09:03:19;;;;;;;;;;;;;;;-142.75;89.05;76172.69;4931012;29;20439;-68
2022/07/14 09:05:45;;;;;;;;;;;;;;;-142.75;93.94;76141.19;4930719;29;19923;-68
2022/07/14 09:08:13;;;;;;;;;;;;;;;-142.75;91.65;76137.25;4933581;28;20443;-68
2022/07/14 09:10:40;;;;;;;;;;;;;;;-142.75;96.94;76109.69;4932974;29;19970;-68
2022/07/14 09:13:17;;;;;;;;;;;;;;;-142.75;93.84;76091.97;4932857;28;19919;-67
2022/07/14 09:15:45;;;;;;;;;;;;;;;-142.75;88.80;76095.91;4934217;29;19923;-68
2022/07/14 09:18:17;;;;;;;;;;;;;;;-142.75;90.66;76088.03;4933775;29;20404;-68
2022/07/14 09:20:42;;;;;;;;;;;;;;;-142.75;88.57;76042.78;4934216;29;19915;-68
2022/07/14 09:23:07;;;;;;;;;;;;;;;-142.75;83.27;76023.09;4934096;29;19915;-68
2022/07/14 09:25:37;;;;;;;;;;;;;;;-142.75;89.35;76011.28;4932818;28;20072;-69
2022/07/14 09:28:03;;;;;;;;;;;;;;;-142.75;88.18;75987.66;4933801;29;19944;-68
2022/07/14 09:30:28;;;;;;;;;;;;;;;-142.75;84.87;75999.47;4934225;29;20013;-68
2022/07/14 09:33:00;;;;;;;;;;;;;;;-142.75;81.27;76007.34;4933818;29;19926;-68
2022/07/14 09:35:33;;;;;;;;;;;;;;;-142.75;89.18;76003.41;4933820;29;19914;-67
2022/07/14 09:37:58;;;;;;;;;;;;;;;-142.75;82.60;75962.09;4933791;29;19914;-67
2022/07/14 09:40:28;;;;;;;;;;;;;;;-142.75;76.31;75942.41;4933941;29;19921;-68
2022/07/14 09:42:59;;;;;;;;;;;;;;;-142.75;73.63;75928.63;4933824;29;19919;-67
2022/07/14 09:45:28;;;;;;;;;;;;;;;-142.75;73.53;75928.63;4933769;29;20020;-67
2022/07/14 09:48:14;;;;;;;;;;;;;;;-142.75;69.46;75922.72;4933416;29;19922;-67
2022/07/14 09:50:42;;;;;;;;;;;;;;;-142.75;69.23;75942.41;4933535;29;19915;-67
2022/07/14 09:53:26;;;;;;;;;;;;;;;-142.75;72.98;75908.94;4933790;29;19998;-67
2022/07/14 09:55:53;;;;;;;;;;;;;;;-142.75;71.66;75891.22;4933732;29;19915;-68
2022/07/14 09:58:19;;;;;;;;;;;;;;;-142.75;68.71;75875.47;4933335;29;19915;-67
2022/07/14 10:00:52;;;;;;;;;;;;;;;-142.75;65.59;75906.97;4933575;29;19922;-68
2022/07/14 10:03:17;;;;;;;;;;;;;;;-142.75;70.00;75914.84;4932195;29;19925;-68
2022/07/14 10:05:43;;;;;;;;;;;;;;;-142.75;70.84;75879.41;4933333;29;19923;-67
2022/07/14 10:08:09;;;;;;;;;;;;;;;-142.75;67.20;75857.78;4933227;28;19922;-68
2022/07/14 10:10:35;;;;;;;;;;;;;;;-142.75;68.71;75869.56;4933565;29;19921;-67
2022/07/14 10:13:01;;;;;;;;;;;;;;;-142.75;66.66;75855.81;4933300;29;19919;-67
2022/07/14 10:15:26;;;;;;;;;;;;;;;-142.75;65.60;75924.69;4933322;28;19922;-68
2022/07/14 10:17:52;;;;;;;;;;;;;;;-142.75;69.47;75875.47;4932291;29;19945;-68
2022/07/14 10:20:19;;;;;;;;;;;;;;;-142.75;68.21;75845.97;4932908;29;19915;-68
2022/07/14 10:22:45;;;;;;;;;;;;;;;-142.75;68.49;75834.16;4932037;28;19922;-68
2022/07/14 10:25:11;;;;;;;;;;;;;;;-142.75;68.15;75788.88;4933380;29;19915;-68
2022/07/14 10:27:38;;;;;;;;;;;;;;;-142.75;66.85;75773.13;4931864;29;20339;-68
2022/07/14 10:30:03;;;;;;;;;;;;;;;-142.75;61.97;75786.91;4932923;29;19968;-68
2022/07/14 10:32:38;;;;;;;;;;;;;;;-142.75;63.88;75769.19;4933095;29;19914;-68
2022/07/14 10:35:10;;;;;;;;;;;;;;;-142.75;64.78;75769.19;4933241;29;19918;-67
2022/07/14 10:37:51;;;;;;;;;;;;;;;-142.75;62.30;75782.97;4933190;29;19949;-67
2022/07/14 10:40:16;;;;;;;;;;;;;;;-142.75;63.39;75810.53;4932837;29;20009;-67
2022/07/14 10:43:01;;;;;;;;;;;;;;;-142.75;65.28;75743.63;4932988;29;20017;-68
2022/07/14 10:45:26;;;;;;;;;;;;;;;-142.75;62.63;75700.31;4932905;29;19926;-68
2022/07/14 10:47:53;;;;;;;;;;;;;;;-142.75;62.07;75704.25;4932586;29;19915;-68
2022/07/14 10:50:25;;;;;;;;;;;;;;;-142.75;61.80;75735.75;4932884;28;19919;-68
2022/07/14 10:52:54;;;;;;;;;;;;;;;-142.75;60.84;75759.38;4932776;29;20030;-68
2022/07/14 10:55:25;;;;;;;;;;;;;;;-142.75;60.75;75757.41;4932960;29;19915;-68
2022/07/14 10:57:59;;;;;;;;;;;;;;;-142.75;62.55;75784.94;4932677;29;19914;-67
2022/07/14 11:00:43;;;;;;;;;;;;;;;-142.75;62.83;75786.91;4932701;29;19952;-67
2022/07/14 11:03:18;;;;;;;;;;;;;;;-142.75;63.86;75808.56;4932478;29;19981;-67
2022/07/14 11:06:03;;;;;;;;;;;;;;;-142.75;64.25;75820.38;4932431;28;19976;-67
2022/07/14 11:08:29;;;;;;;;;;;;;;;-142.75;65.12;75814.47;4932476;29;19950;-68
2022/07/14 11:10:54;;;;;;;;;;;;;;;-142.75;63.55;75779.03;4931398;29;19965;-68
2022/07/14 11:13:19;;;;;;;;;;;;;;;-142.75;61.97;75757.41;4932665;29;19919;-67
2022/07/14 11:15:51;;;;;;;;;;;;;;;-142.75;66.64;75729.84;4931106;29;19919;-67
2022/07/14 11:18:24;;;;;;;;;;;;;;;-142.75;61.71;75708.19;4932030;29;19965;-67
2022/07/14 11:20:49;;;;;;;;;;;;;;;-142.75;62.85;75692.44;4932749;29;19954;-67
2022/07/14 11:23:16;;;;;;;;;;;;;;;-142.75;61.56;75688.50;4932526;29;20021;-67
2022/07/14 11:25:41;;;;;;;;;;;;;;;-142.75;60.43;75692.44;4932310;28;19926;-67
2022/07/14 11:28:26;;;;;;;;;;;;;;;-142.75;64.59;75676.69;4932068;29;19915;-67
2022/07/14 11:31:07;;;;;;;;;;;;;;;-142.75;65.31;75704.25;4931282;28;20308;-68
2022/07/14 11:33:33;;;;;;;;;;;;;;;-142.75;65.04;75718.03;4932102;29;19929;-67
2022/07/14 11:36:19;;;;;;;;;;;;;;;-142.75;65.38;75720.00;4932247;29;19914;-67
2022/07/14 11:38:44;;;;;;;;;;;;;;;-142.75;64.19;75682.59;4931900;29;19919;-68
2022/07/14 11:41:12;;;;;;;;;;;;;;;-142.75;62.40;75660.97;4932279;29;20355;-69
2022/07/14 11:43:39;;;;;;;;;;;;;;;-142.75;65.09;75659.00;4932101;29;19960;-68
2022/07/14 11:46:04;;;;;;;;;;;;;;;-142.75;67.82;75619.63;4951841;22;19934;-67
2022/07/14 11:48:50;;;;;;;;;;;;;;;-142.75;65.82;75599.94;4948936;28;20363;-72
2022/07/14 11:51:26;;;;;;;;;;;;;;;-142.75;63.25;75607.81;4950237;28;19922;-70
2022/07/14 11:53:52;;;;;;;;;;;;;;;-142.75;63.38;75645.22;4951894;28;19918;-70
2022/07/14 11:56:21;;;;;;;;;;;;;;;-142.75;61.76;75588.16;4951896;28;19957;-72
2022/07/14 11:58:46;;;;;;;;;;;;;;;-142.75;63.67;75542.88;4951530;28;19914;-71
2022/07/14 12:01:13;;;;;;;;;;;;;;;-142.75;62.63;75548.78;4951768;29;19922;-71
2022/07/14 12:03:38;;;;;;;;;;;;;;;-142.75;61.56;75574.38;4951778;28;20400;-71
2022/07/14 12:06:04;;;;;;;;;;;;;;;-142.75;62.60;75619.63;4951688;28;19918;-71
2022/07/14 12:08:30;;;;;;;;;;;;;;;-142.75;62.76;75597.97;4951498;28;20299;-72
2022/07/14 12:11:08;;;;;;;;;;;;;;;-142.75;64.54;75603.88;4951730;29;20391;-72
2022/07/14 12:13:43;;;;;;;;;;;;;;;-142.75;63.85;75664.91;4951641;29;19918;-71
2022/07/14 12:16:09;;;;;;;;;;;;;;;-142.75;64.98;75666.88;4950487;29;20331;-72
2022/07/14 12:18:35;;;;;;;;;;;;;;;-142.75;63.11;75696.38;4951371;28;19922;-71
2022/07/14 12:21:00;;;;;;;;;;;;;;;-142.75;64.16;75716.06;4950401;28;19968;-69
2022/07/14 12:23:25;;;;;;;;;;;;;;;-142.75;65.03;75718.03;4951605;28;19930;-71